Time;durP1;ratioP1;P1;durP2;ratioP2;P2;SDS_P1;SDS_P2;PMS_P1;PMS_P2;Temp;Humidity;BMP_temperature;BMP_pressure;BME280_temperature;BME280_humidity;BME280_pressure;Samples;Min_cycle;Max_cycle;Signal;HPM_P1;HPM_P2
2022/04/12 00:00:23;;;;;;;4.78;3.85;;;12.70;94.80;;;;;;6247082;23;20011;-73
2022/04/12 00:02:49;;;;;;;5.13;4.40;;;12.70;95.00;;;;;;6246690;23;20008;-74
2022/04/12 00:05:14;;;;;;;6.90;4.88;;;12.70;94.60;;;;;;6246705;23;20035;-73
2022/04/12 00:07:41;;;;;;;6.15;4.97;;;12.60;94.70;;;;;;6247240;23;20333;-73
2022/04/12 00:10:08;;;;;;;5.65;4.25;;;12.50;94.90;;;;;;6247179;22;20057;-73
2022/04/12 00:12:35;;;;;;;6.53;4.60;;;12.50;94.90;;;;;;6245998;22;20330;-73
2022/04/12 00:15:01;;;;;;;5.65;4.10;;;12.50;95.20;;;;;;6247271;22;20436;-73
2022/04/12 00:20:11;;;;;;;6.53;4.68;;;12.30;95.00;;;;;;6247436;23;20019;-73
2022/04/12 00:22:39;;;;;;;8.50;4.97;;;12.40;95.00;;;;;;6247266;22;20330;-74
2022/04/12 00:25:08;;;;;;;5.82;4.55;;;12.40;95.10;;;;;;6246239;22;20481;-73
2022/04/12 00:27:33;;;;;;;7.32;4.97;;;12.30;95.10;;;;;;6247475;22;20001;-73
2022/04/12 00:29:59;;;;;;;9.43;4.13;;;12.40;95.10;;;;;;6247103;23;20007;-74
2022/04/12 00:32:24;;;;;;;7.43;4.90;;;12.40;95.60;;;;;;6245582;23;20452;-73
2022/04/12 00:34:50;;;;;;;7.10;4.22;;;12.40;95.60;;;;;;6245994;23;20004;-73
2022/04/12 00:37:16;;;;;;;7.75;4.80;;;12.40;95.90;;;;;;6246686;23;20000;-73
2022/04/12 00:39:41;;;;;;;6.28;4.60;;;12.30;95.50;;;;;;6247056;22;20000;-73
2022/04/12 00:42:07;;;;;;;5.93;4.53;;;12.30;95.00;;;;;;6247137;23;20334;-73
2022/04/12 00:44:33;;;;;;;7.78;4.53;;;12.30;95.90;;;;;;6245324;23;20007;-73
2022/04/12 00:46:58;;;;;;;8.18;4.75;;;12.30;95.30;;;;;;6246776;23;20012;-73
2022/04/12 00:49:24;;;;;;;6.38;4.32;;;12.30;95.20;;;;;;6246538;23;20014;-73
2022/04/12 00:51:51;;;;;;;5.72;4.75;;;12.30;95.60;;;;;;6246994;22;20004;-73
2022/04/12 00:54:19;;;;;;;5.22;4.18;;;12.30;95.40;;;;;;6246569;22;20003;-73
2022/04/12 00:56:47;;;;;;;9.30;4.80;;;12.20;95.60;;;;;;6270536;22;20028;-73
2022/04/12 00:59:14;;;;;;;6.28;4.82;;;12.10;95.60;;;;;;6246766;22;20012;-73
2022/04/12 01:01:39;;;;;;;5.38;4.00;;;12.10;95.90;;;;;;6246344;22;20303;-73
2022/04/12 01:04:05;;;;;;;6.47;4.90;;;12.10;96.40;;;;;;6246975;23;20071;-73
2022/04/12 01:06:31;;;;;;;4.63;4.15;;;12.20;96.30;;;;;;6246581;23;20333;-73
2022/04/12 01:08:56;;;;;;;5.38;3.60;;;12.20;96.00;;;;;;6246821;23;20034;-73
2022/04/12 01:11:22;;;;;;;6.38;3.88;;;12.20;96.20;;;;;;6246459;23;20431;-74
2022/04/12 01:13:48;;;;;;;3.85;3.55;;;12.10;96.00;;;;;;6247035;22;20007;-73
2022/04/12 01:16:13;;;;;;;9.65;4.00;;;12.20;96.80;;;;;;6246131;23;20008;-73
2022/04/12 01:18:40;;;;;;;7.68;4.22;;;12.10;96.50;;;;;;6246746;23;20003;-73
2022/04/12 01:21:06;;;;;;;6.72;4.75;;;12.20;96.10;;;;;;6246922;22;20012;-74
2022/04/12 01:23:41;;;;;;;11.82;4.32;;;12.20;96.70;;;;;;6246539;22;20008;-73
2022/04/12 01:26:08;;;;;;;5.95;3.95;;;12.10;96.80;;;;;;6246564;22;20008;-73
2022/04/12 01:28:33;;;;;;;8.15;4.50;;;12.10;96.80;;;;;;6246289;22;20075;-73
2022/04/12 01:30:59;;;;;;;6.32;4.00;;;12.00;96.50;;;;;;6244539;23;20035;-73
2022/04/12 01:33:25;;;;;;;9.90;5.13;;;12.00;96.50;;;;;;6246222;23;19996;-73
2022/04/12 01:35:50;;;;;;;6.90;4.82;;;12.00;96.20;;;;;;6246114;23;20011;-73
2022/04/12 01:38:16;;;;;;;11.13;5.00;;;11.90;96.60;;;;;;6246750;22;20398;-73
2022/04/12 01:40:42;;;;;;;4.57;3.95;;;12.00;96.90;;;;;;6246273;23;20031;-73
2022/04/12 01:43:07;;;;;;;5.90;5.18;;;12.00;97.10;;;;;;6246361;23;20051;-73
2022/04/12 01:45:33;;;;;;;5.95;4.30;;;11.90;96.80;;;;;;6245553;23;20078;-73
2022/04/12 01:47:59;;;;;;;6.00;4.00;;;11.90;96.50;;;;;;6246300;23;20000;-73
2022/04/12 01:50:24;;;;;;;4.82;3.97;;;11.90;96.70;;;;;;6246343;23;20299;-73
2022/04/12 01:52:50;;;;;;;5.90;4.10;;;11.80;97.30;;;;;;6246252;23;20004;-73
2022/04/12 01:55:16;;;;;;;4.88;3.60;;;11.80;97.40;;;;;;6246307;23;20008;-73
2022/04/12 01:57:42;;;;;;;6.40;4.60;;;11.70;97.50;;;;;;6246069;22;20000;-73
2022/04/12 02:00:08;;;;;;;8.43;4.80;;;11.70;97.20;;;;;;6245607;23;20004;-73
2022/04/12 02:02:34;;;;;;;7.40;4.97;;;11.70;97.80;;;;;;6246021;22;20335;-73
2022/04/12 02:05:00;;;;;;;5.90;4.07;;;11.60;97.20;;;;;;6246303;22;19996;-73
2022/04/12 02:07:26;;;;;;;6.72;4.82;;;11.60;97.90;;;;;;6244604;23;20413;-73
2022/04/12 02:09:52;;;;;;;5.47;4.30;;;11.60;97.70;;;;;;6246312;23;20000;-73
2022/04/12 02:12:18;;;;;;;6.32;4.28;;;11.70;97.60;;;;;;6246228;23;20055;-72
2022/04/12 02:14:44;;;;;;;6.13;4.00;;;11.60;98.20;;;;;;6243346;23;20000;-73
2022/04/12 02:17:10;;;;;;;5.90;3.92;;;11.70;97.30;;;;;;6246039;22;20005;-73
2022/04/12 02:19:35;;;;;;;5.88;4.45;;;11.60;97.50;;;;;;6244227;23;20075;-73
2022/04/12 02:22:01;;;;;;;8.50;3.83;;;11.60;97.60;;;;;;6245244;23;20004;-73
2022/04/12 02:24:26;;;;;;;5.00;3.40;;;11.60;97.90;;;;;;6243839;23;20004;-73
2022/04/12 02:26:52;;;;;;;7.68;3.83;;;11.50;97.70;;;;;;6245524;23;20333;-73
2022/04/12 02:29:18;;;;;;;5.30;3.75;;;11.50;97.70;;;;;;6245984;23;19996;-73
2022/04/12 02:31:43;;;;;;;4.07;3.70;;;11.50;97.60;;;;;;6245738;23;20004;-73
2022/04/12 02:34:09;;;;;;;4.70;3.60;;;11.40;97.30;;;;;;6245774;23;20318;-73
2022/04/12 02:36:35;;;;;;;3.55;3.22;;;11.50;97.90;;;;;;6245734;22;20008;-73
2022/04/12 02:39:01;;;;;;;7.47;4.07;;;11.50;97.80;;;;;;6245738;23;20414;-73
2022/04/12 02:41:26;;;;;;;6.53;4.25;;;11.30;98.60;;;;;;6245047;23;20011;-73
2022/04/12 02:43:52;;;;;;;6.82;3.60;;;11.40;98.30;;;;;;6245589;23;20073;-73
2022/04/12 02:46:18;;;;;;;5.15;3.72;;;11.30;98.50;;;;;;6245937;23;20012;-73
2022/04/12 02:48:43;;;;;;;6.82;3.65;;;11.30;99.00;;;;;;6245715;23;20536;-75
2022/04/12 02:51:09;;;;;;;5.20;3.85;;;11.30;98.90;;;;;;6246271;23;20414;-73
2022/04/12 02:53:34;;;;;;;7.72;3.90;;;11.20;99.10;;;;;;6245619;23;20004;-73
2022/04/12 02:56:00;;;;;;;4.80;4.22;;;11.20;99.00;;;;;;6245631;23;20000;-73
2022/04/12 02:58:26;;;;;;;11.13;4.30;;;11.20;98.40;;;;;;6245413;23;20372;-73
2022/04/12 03:00:51;;;;;;;6.35;4.00;;;11.20;98.40;;;;;;6245763;23;20008;-73
2022/04/12 03:03:17;;;;;;;5.93;4.38;;;11.10;98.40;;;;;;6245707;22;19997;-73
2022/04/12 03:05:42;;;;;;;6.07;4.20;;;11.10;98.80;;;;;;6245730;23;20035;-73
2022/04/12 03:08:08;;;;;;;9.73;4.30;;;11.00;99.00;;;;;;6245340;23;20023;-73
2022/04/12 03:10:34;;;;;;;5.82;4.30;;;11.00;99.50;;;;;;6245406;23;20065;-73
2022/04/12 03:13:00;;;;;;;5.47;3.97;;;10.90;98.70;;;;;;6245634;23;20003;-73
2022/04/12 03:15:25;;;;;;;6.68;3.83;;;11.00;99.60;;;;;;6244338;23;20023;-73
2022/04/12 03:17:51;;;;;;;4.75;3.90;;;11.00;99.30;;;;;;6245676;23;20005;-73
2022/04/12 03:20:16;;;;;;;7.50;4.72;;;10.90;99.60;;;;;;6245891;23;20004;-73
2022/04/12 03:22:42;;;;;;;8.60;4.30;;;10.90;99.40;;;;;;6245523;23;20008;-73
2022/04/12 03:25:10;;;;;;;6.55;4.15;;;10.90;99.50;;;;;;6245236;22;20004;-73
2022/04/12 03:27:35;;;;;;;4.85;4.00;;;10.90;99.20;;;;;;6246186;22;20027;-73
2022/04/12 03:30:02;;;;;;;6.05;4.00;;;10.90;99.40;;;;;;6247806;23;20003;-73
2022/04/12 03:32:27;;;;;;;7.22;4.07;;;10.80;99.30;;;;;;6247754;22;20062;-73
2022/04/12 03:34:53;;;;;;;6.38;4.20;;;10.80;99.20;;;;;;6247772;22;20408;-73
2022/04/12 03:37:18;;;;;;;5.68;4.05;;;10.70;99.50;;;;;;6247788;23;20004;-73
2022/04/12 03:39:45;;;;;;;10.65;4.53;;;10.70;99.30;;;;;;6246825;23;20004;-73
2022/04/12 03:42:11;;;;;;;8.40;4.22;;;10.70;99.40;;;;;;6247726;22;20036;-73
2022/04/12 03:44:40;;;;;;;9.77;4.38;;;10.70;99.40;;;;;;6247101;22;19996;-73
2022/04/12 03:47:07;;;;;;;5.90;4.80;;;10.70;99.80;;;;;;6246104;23;20016;-73
2022/04/12 03:49:33;;;;;;;7.53;4.25;;;10.60;99.50;;;;;;6247136;22;20076;-73
2022/04/12 03:51:59;;;;;;;9.52;4.75;;;10.70;99.90;;;;;;6247161;22;20058;-73
2022/04/12 03:54:24;;;;;;;6.90;4.47;;;10.70;99.90;;;;;;6246161;23;20364;-73
2022/04/12 03:56:50;;;;;;;6.43;4.05;;;10.60;99.90;;;;;;6247887;23;20030;-76
2022/04/12 03:59:15;;;;;;;6.30;4.40;;;10.60;99.90;;;;;;6247002;23;20393;-73
2022/04/12 04:01:41;;;;;;;7.20;4.85;;;10.50;99.80;;;;;;6246813;23;20008;-73
2022/04/12 04:04:06;;;;;;;5.70;4.20;;;10.50;99.60;;;;;;6247195;23;20329;-75
2022/04/12 04:06:32;;;;;;;4.88;3.92;;;10.40;99.90;;;;;;6247180;23;20012;-75
2022/04/12 04:08:58;;;;;;;7.13;4.20;;;10.40;99.90;;;;;;6246551;23;20003;-73
2022/04/12 04:11:23;;;;;;;9.15;4.88;;;10.30;99.90;;;;;;6247064;23;20011;-73
2022/04/12 04:13:49;;;;;;;6.00;4.50;;;10.40;99.90;;;;;;6247126;23;20004;-75
2022/04/12 04:16:14;;;;;;;9.00;5.78;;;10.40;99.90;;;;;;6247314;23;20000;-74
2022/04/12 04:18:40;;;;;;;9.65;5.07;;;10.40;99.90;;;;;;6247092;23;19996;-74
2022/04/12 04:21:05;;;;;;;9.25;4.80;;;10.50;99.90;;;;;;6247498;23;20034;-75
2022/04/12 04:23:31;;;;;;;7.95;5.20;;;10.40;99.90;;;;;;6246998;23;20083;-74
2022/04/12 04:25:57;;;;;;;8.30;4.47;;;10.40;99.90;;;;;;6246877;23;20094;-74
2022/04/12 04:28:23;;;;;;;8.30;5.47;;;10.40;99.90;;;;;;6247327;23;20026;-75
2022/04/12 04:30:49;;;;;;;7.68;4.75;;;10.30;99.90;;;;;;6247044;23;20322;-74
2022/04/12 04:33:17;;;;;;;5.90;5.00;;;10.30;99.90;;;;;;6247044;22;19996;-75
2022/04/12 04:35:43;;;;;;;6.65;4.82;;;10.30;99.90;;;;;;6247008;22;20000;-75
2022/04/12 04:38:09;;;;;;;6.75;4.95;;;10.20;99.90;;;;;;6246225;22;20034;-75
2022/04/12 04:40:34;;;;;;;6.28;5.03;;;10.20;99.90;;;;;;6246471;23;20325;-74
2022/04/12 04:43:02;;;;;;;11.23;4.50;;;10.20;99.90;;;;;;6247347;23;20000;-74
2022/04/12 04:45:27;;;;;;;9.00;4.82;;;10.10;99.90;;;;;;6247105;22;20008;-74
2022/04/12 04:48:03;;;;;;;5.95;4.72;;;10.20;99.90;;;;;;6247155;23;20372;-74
2022/04/12 04:50:31;;;;;;;5.93;5.22;;;10.20;99.90;;;;;;6246868;22;20007;-74
2022/04/12 04:53:02;;;;;;;7.55;5.00;;;10.20;99.90;;;;;;6246664;22;20314;-74
2022/04/12 04:55:28;;;;;;;5.47;4.38;;;10.20;99.90;;;;;;6246756;22;20004;-75
2022/04/12 04:57:58;;;;;;;10.18;5.50;;;10.20;99.90;;;;;;6246466;22;19996;-74
2022/04/12 05:00:29;;;;;;;8.40;5.13;;;10.10;99.90;;;;;;6246667;22;20015;-74
2022/04/12 05:02:55;;;;;;;8.20;5.20;;;10.10;99.90;;;;;;6246816;22;20011;-74
2022/04/12 05:05:21;;;;;;;8.52;4.88;;;10.10;99.90;;;;;;6246649;22;20011;-75
2022/04/12 05:07:52;;;;;;;9.65;5.07;;;10.10;99.90;;;;;;6246437;23;20012;-74
2022/04/12 05:10:23;;;;;;;7.50;5.10;;;10.20;99.90;;;;;;6246591;22;19996;-74
2022/04/12 05:12:50;;;;;;;7.63;5.35;;;10.20;99.90;;;;;;6246591;22;20004;-74
2022/04/12 05:15:17;;;;;;;7.47;5.30;;;10.20;99.90;;;;;;6246546;22;19997;-74
2022/04/12 05:17:51;;;;;;;8.65;5.13;;;10.10;99.90;;;;;;6244507;23;20011;-74
2022/04/12 05:20:18;;;;;;;5.20;4.65;;;10.10;99.90;;;;;;6246753;22;20030;-74
2022/04/12 05:22:43;;;;;;;8.02;5.53;;;10.10;99.90;;;;;;6246464;22;20027;-74
2022/04/12 05:25:09;;;;;;;12.90;5.30;;;10.10;99.90;;;;;;6245909;23;20307;-74
2022/04/12 05:27:35;;;;;;;7.30;5.15;;;10.10;99.90;;;;;;6246339;23;20004;-74
2022/04/12 05:30:02;;;;;;;9.07;5.50;;;10.10;99.90;;;;;;6246925;22;20075;-72
2022/04/12 05:32:28;;;;;;;6.82;4.60;;;10.00;99.90;;;;;;6245934;22;20011;-74
2022/04/12 05:34:54;;;;;;;5.50;4.80;;;10.00;99.90;;;;;;6246478;23;20019;-74
2022/04/12 05:37:19;;;;;;;5.82;4.85;;;10.00;99.90;;;;;;6245919;23;20216;-74
2022/04/12 05:39:45;;;;;;;8.82;6.38;;;9.90;99.90;;;;;;6245611;22;20022;-73
2022/04/12 05:42:11;;;;;;;8.20;5.55;;;10.00;99.90;;;;;;6245618;23;20004;-75
2022/04/12 05:44:36;;;;;;;7.47;5.68;;;10.00;99.90;;;;;;6246282;23;19997;-75
2022/04/12 05:47:03;;;;;;;6.15;5.55;;;10.10;99.90;;;;;;6246350;23;20055;-75
2022/04/12 05:49:29;;;;;;;6.45;5.53;;;10.10;99.90;;;;;;6246039;23;20015;-74
2022/04/12 05:51:55;;;;;;;7.93;5.50;;;10.10;99.90;;;;;;6244189;22;20051;-75
2022/04/12 05:54:22;;;;;;;7.38;5.78;;;10.10;99.90;;;;;;6244564;22;20159;-74
2022/04/12 05:56:48;;;;;;;8.15;6.05;;;10.30;99.90;;;;;;6246072;22;20053;-75
2022/04/12 05:59:13;;;;;;;7.63;6.32;;;10.30;99.90;;;;;;6244508;23;20012;-75
2022/04/12 06:01:39;;;;;;;8.15;5.90;;;10.40;99.90;;;;;;6243185;23;20011;-73
2022/04/12 06:04:06;;;;;;;11.85;6.20;;;10.40;99.90;;;;;;6245109;23;20353;-72
2022/04/12 06:06:32;;;;;;;13.77;6.50;;;10.50;99.90;;;;;;6243669;22;20016;-73
2022/04/12 06:09:02;;;;;;;8.63;5.97;;;10.50;99.90;;;;;;6245886;22;20000;-73
2022/04/12 06:11:28;;;;;;;6.70;5.70;;;10.60;99.90;;;;;;6245446;22;20481;-72
2022/04/12 06:13:54;;;;;;;9.40;6.32;;;10.70;99.90;;;;;;6246133;23;20050;-72
2022/04/12 06:16:20;;;;;;;8.52;5.78;;;10.80;99.90;;;;;;6243125;23;20000;-72
2022/04/12 06:18:45;;;;;;;9.02;5.55;;;10.90;99.90;;;;;;6245739;22;20034;-72
2022/04/12 06:21:11;;;;;;;8.35;5.95;;;10.90;99.90;;;;;;6245044;23;20012;-72
2022/04/12 06:23:37;;;;;;;9.35;6.20;;;11.00;99.90;;;;;;6245698;22;20333;-72
2022/04/12 06:26:04;;;;;;;11.23;6.55;;;11.20;99.90;;;;;;6245704;22;20015;-72
2022/04/12 06:28:30;;;;;;;12.43;6.32;;;11.30;99.90;;;;;;6245965;22;20001;-72
2022/04/12 06:30:58;;;;;;;9.82;6.00;;;11.30;99.90;;;;;;6245881;22;20000;-72
2022/04/12 06:33:24;;;;;;;11.05;6.60;;;11.40;99.90;;;;;;6245562;22;20001;-72
2022/04/12 06:35:50;;;;;;;6.70;5.47;;;11.60;99.90;;;;;;6246047;22;20001;-73
2022/04/12 06:38:15;;;;;;;11.38;6.30;;;11.60;99.90;;;;;;6245505;22;20000;-73
2022/04/12 06:40:43;;;;;;;8.52;5.88;;;11.60;99.90;;;;;;6244711;22;20338;-73
2022/04/12 06:43:09;;;;;;;10.57;6.78;;;11.70;99.90;;;;;;6245122;22;20486;-72
2022/04/12 06:45:34;;;;;;;9.88;6.25;;;11.80;99.90;;;;;;6243946;23;20043;-72
2022/04/12 06:48:00;;;;;;;6.85;5.43;;;11.80;99.90;;;;;;6245092;23;20000;-72
2022/04/12 06:50:27;;;;;;;13.20;6.35;;;11.80;99.90;;;;;;6243837;23;20004;-72
2022/04/12 06:52:54;;;;;;;8.48;5.82;;;11.80;99.90;;;;;;6244358;22;20421;-72
2022/04/12 06:55:20;;;;;;;6.07;4.90;;;11.90;99.90;;;;;;6244951;22;20485;-72
2022/04/12 06:57:45;;;;;;;8.77;5.43;;;12.00;99.90;;;;;;6245707;23;20023;-72
2022/04/12 07:00:11;;;;;;;10.00;5.28;;;12.00;99.90;;;;;;6243949;23;20337;-72
2022/04/12 07:02:37;;;;;;;7.95;5.53;;;12.00;99.90;;;;;;6246639;22;20000;-72
2022/04/12 07:05:05;;;;;;;5.85;4.32;;;12.10;99.90;;;;;;6247548;22;20023;-72
2022/04/12 07:07:31;;;;;;;9.90;4.53;;;12.30;99.90;;;;;;6248237;22;20370;-72
2022/04/12 07:09:57;;;;;;;8.77;5.82;;;12.30;99.90;;;;;;6246401;23;20027;-73
2022/04/12 07:12:24;;;;;;;10.77;5.25;;;12.40;99.90;;;;;;6247148;22;20010;-73
2022/04/12 07:14:50;;;;;;;14.02;5.63;;;12.50;99.90;;;;;;6247511;22;20003;-73
2022/04/12 07:17:16;;;;;;;8.15;5.28;;;12.60;99.90;;;;;;6247585;22;20075;-73
2022/04/12 07:19:41;;;;;;;8.45;4.63;;;12.50;99.90;;;;;;6247619;23;20014;-73
2022/04/12 07:22:09;;;;;;;9.30;5.25;;;12.70;99.90;;;;;;6246982;23;20004;-73
2022/04/12 07:24:34;;;;;;;5.82;4.38;;;12.80;99.90;;;;;;6247052;22;20014;-73
2022/04/12 07:27:00;;;;;;;7.75;5.30;;;12.80;99.90;;;;;;6247635;23;20410;-73
2022/04/12 07:29:26;;;;;;;7.97;5.13;;;13.00;99.90;;;;;;6246052;23;20511;-74
2022/04/12 07:31:51;;;;;;;10.23;4.97;;;13.00;99.90;;;;;;6247377;23;20360;-74
2022/04/12 07:34:17;;;;;;;6.13;4.82;;;13.20;99.90;;;;;;6247420;23;20318;-73
2022/04/12 07:36:47;;;;;;;6.05;3.95;;;13.30;99.90;;;;;;6247506;23;20045;-73
2022/04/12 07:39:14;;;;;;;5.43;4.55;;;13.40;99.90;;;;;;6246851;22;20485;-73
2022/04/12 07:41:40;;;;;;;8.75;4.68;;;13.50;99.90;;;;;;6246688;22;20087;-73
2022/04/12 07:44:06;;;;;;;7.45;4.25;;;13.50;99.90;;;;;;6247092;22;20090;-73
2022/04/12 07:46:31;;;;;;;7.97;4.95;;;13.60;99.90;;;;;;6246410;23;20016;-72
2022/04/12 07:48:57;;;;;;;8.27;5.28;;;13.60;99.90;;;;;;6247163;23;20004;-72
2022/04/12 07:51:23;;;;;;;5.72;4.57;;;13.70;99.90;;;;;;6246347;23;20004;-75
2022/04/12 07:53:48;;;;;;;9.52;4.95;;;13.90;99.90;;;;;;6246388;23;20058;-72
2022/04/12 07:56:14;;;;;;;10.45;5.00;;;14.10;99.90;;;;;;6246937;23;20441;-73
2022/04/12 07:58:39;;;;;;;7.50;5.28;;;14.20;99.90;;;;;;6245368;23;20015;-73
2022/04/12 08:01:05;;;;;;;7.18;5.07;;;14.40;99.90;;;;;;6246201;23;20369;-72
2022/04/12 08:03:31;;;;;;;7.63;4.50;;;14.60;99.90;;;;;;6244166;23;20008;-72
2022/04/12 08:05:57;;;;;;;10.50;4.53;;;14.70;99.90;;;;;;6247174;22;20016;-73
2022/04/12 08:08:22;;;;;;;7.88;4.72;;;14.90;99.70;;;;;;6246826;22;20003;-72
2022/04/12 08:10:48;;;;;;;8.07;5.10;;;14.90;99.70;;;;;;6246943;23;20008;-72
2022/04/12 08:13:14;;;;;;;8.35;5.18;;;15.00;99.40;;;;;;6246890;23;20028;-72
2022/04/12 08:15:40;;;;;;;8.38;5.30;;;15.10;99.30;;;;;;6246338;22;20365;-72
2022/04/12 08:18:06;;;;;;;7.45;4.57;;;15.20;99.20;;;;;;6246937;23;20030;-72
2022/04/12 08:20:32;;;;;;;10.27;5.47;;;15.30;99.90;;;;;;6246348;23;20004;-73
2022/04/12 08:22:58;;;;;;;7.57;4.40;;;15.40;99.90;;;;;;6246724;22;20058;-73
2022/04/12 08:25:25;;;;;;;9.23;5.00;;;15.60;99.10;;;;;;6246659;22;20015;-72
2022/04/12 08:27:50;;;;;;;5.30;3.83;;;15.70;99.00;;;;;;6246275;22;20028;-73
2022/04/12 08:30:16;;;;;;;7.00;5.15;;;15.80;99.00;;;;;;6245885;23;20000;-72
2022/04/12 08:32:42;;;;;;;5.18;4.45;;;15.90;99.00;;;;;;6247141;22;20084;-73
2022/04/12 08:35:09;;;;;;;10.45;5.10;;;16.00;98.20;;;;;;6246899;22;20000;-73
2022/04/12 08:37:35;;;;;;;8.50;4.97;;;16.20;99.20;;;;;;6246909;22;20340;-73
2022/04/12 08:40:01;;;;;;;6.97;4.38;;;16.40;99.40;;;;;;6246462;23;20054;-73
2022/04/12 08:42:27;;;;;;;8.88;4.20;;;16.60;98.20;;;;;;6246609;22;20318;-73
2022/04/12 08:44:52;;;;;;;8.50;5.22;;;16.60;99.00;;;;;;6245458;23;19997;-74
2022/04/12 08:47:19;;;;;;;9.68;4.80;;;16.90;98.30;;;;;;6246123;23;20012;-73
2022/04/12 08:49:45;;;;;;;10.02;4.47;;;16.90;98.00;;;;;;6246417;22;20038;-73
2022/04/12 08:52:13;;;;;;;7.10;5.10;;;17.00;97.90;;;;;;6246539;22;20008;-73
2022/04/12 08:54:43;;;;;;;8.63;4.68;;;17.00;97.70;;;;;;6245419;22;19996;-73
2022/04/12 08:57:11;;;;;;;7.60;4.07;;;17.00;97.80;;;;;;6245448;23;20079;-73
2022/04/12 08:59:38;;;;;;;5.90;3.80;;;17.10;97.90;;;;;;6245145;22;20106;-73
2022/04/12 09:02:07;;;;;;;8.52;4.05;;;17.30;97.70;;;;;;6247053;22;20079;-73
2022/04/12 09:04:33;;;;;;;8.52;4.22;;;17.50;97.90;;;;;;6246834;22;20000;-73
2022/04/12 09:07:00;;;;;;;6.90;4.50;;;17.60;97.00;;;;;;6246426;22;20070;-73
2022/04/12 09:09:29;;;;;;;5.93;4.35;;;17.70;97.70;;;;;;6244844;23;19996;-73
2022/04/12 09:11:58;;;;;;;6.85;3.97;;;17.80;97.10;;;;;;6246264;22;20341;-73
2022/04/12 09:14:25;;;;;;;5.60;3.83;;;17.90;96.80;;;;;;6246039;22;20418;-77
2022/04/12 09:16:52;;;;;;;4.32;3.05;;;18.00;96.60;;;;;;6245571;22;20010;-72
2022/04/12 09:19:45;;;;;;;7.05;3.45;;;18.10;96.60;;;;;;6246438;22;20011;-70
2022/04/12 09:22:22;;;;;;;6.43;3.35;;;18.40;96.90;;;;;;6233955;23;20008;-71
2022/04/12 09:25:01;;;;;;;6.95;3.67;;;18.60;97.00;;;;;;6246476;22;20086;-73
2022/04/12 09:27:29;;;;;;;7.43;3.88;;;18.70;96.40;;;;;;6245931;22;20008;-72
2022/04/12 09:29:57;;;;;;;7.95;2.97;;;18.70;95.80;;;;;;6246246;22;20026;-73
2022/04/12 09:32:27;;;;;;;8.02;3.10;;;18.60;95.10;;;;;;6245930;23;20078;-73
2022/04/12 09:34:54;;;;;;;6.70;2.90;;;18.70;95.40;;;;;;6246160;22;20000;-72
2022/04/12 09:37:21;;;;;;;4.90;2.50;;;18.80;94.40;;;;;;6246132;22;20011;-73
2022/04/12 09:40:07;;;;;;;5.75;2.97;;;18.80;95.00;;;;;;6246309;22;19996;-72
2022/04/12 09:42:36;;;;;;;4.50;2.72;;;19.00;94.30;;;;;;6245553;22;20000;-72
2022/04/12 09:45:04;;;;;;;5.95;2.72;;;19.00;93.80;;;;;;6243710;22;20479;-74
2022/04/12 09:47:32;;;;;;;3.33;3.00;;;19.10;94.30;;;;;;6245413;22;20012;-73
2022/04/12 09:49:58;;;;;;;4.93;2.40;;;19.10;93.10;;;;;;6245609;22;20008;-73
2022/04/12 09:52:24;;;;;;;6.13;3.53;;;19.00;94.20;;;;;;6245656;22;20004;-74
2022/04/12 09:54:51;;;;;;;8.27;3.35;;;19.20;94.00;;;;;;6245433;23;20315;-73
2022/04/12 09:57:18;;;;;;;6.07;4.43;;;19.30;94.60;;;;;;6245223;22;20491;-74
2022/04/12 09:59:45;;;;;;;5.22;3.92;;;19.40;95.20;;;;;;6245361;22;20083;-73
2022/04/12 10:02:11;;;;;;;7.85;3.97;;;19.40;95.10;;;;;;6245131;22;20000;-74
2022/04/12 10:04:39;;;;;;;7.65;5.22;;;19.60;94.70;;;;;;6245442;22;20000;-74
2022/04/12 10:07:09;;;;;;;5.95;4.00;;;19.70;94.40;;;;;;6245505;22;20016;-74
2022/04/12 10:09:37;;;;;;;5.13;4.20;;;20.00;95.00;;;;;;6245679;22;20004;-74
2022/04/12 10:12:05;;;;;;;8.80;4.25;;;20.10;93.80;;;;;;6244309;22;20004;-74
2022/04/12 10:14:31;;;;;;;6.45;4.40;;;20.20;93.40;;;;;;6269502;22;20047;-74
2022/04/12 10:16:58;;;;;;;8.50;4.13;;;20.20;93.90;;;;;;6245539;22;20008;-74
2022/04/12 10:19:24;;;;;;;7.88;4.00;;;20.00;93.70;;;;;;6245578;22;19997;-74
2022/04/12 10:21:49;;;;;;;5.88;4.18;;;20.10;94.30;;;;;;6245755;22;20094;-74
2022/04/12 10:24:16;;;;;;;9.50;4.32;;;20.00;93.90;;;;;;6245672;23;20000;-74
2022/04/12 10:26:45;;;;;;;9.38;4.13;;;20.00;93.90;;;;;;6244862;22;20377;-74
2022/04/12 10:29:13;;;;;;;6.93;3.63;;;19.80;93.80;;;;;;6245444;22;20076;-74
2022/04/12 10:31:52;;;;;;;9.00;3.67;;;20.20;94.70;;;;;;6243294;23;20014;-74
2022/04/12 10:34:18;;;;;;;8.52;4.40;;;20.10;94.00;;;;;;6245340;22;20425;-73
2022/04/12 10:37:08;;;;;;;9.63;3.75;;;20.20;94.10;;;;;;6244971;23;20007;-73
2022/04/12 10:39:45;;;;;;;6.63;3.60;;;20.30;94.30;;;;;;6245068;22;20001;-73
2022/04/12 10:42:14;;;;;;;9.95;4.40;;;20.40;94.50;;;;;;6244712;22;20004;-73
2022/04/12 10:45:06;;;;;;;10.52;3.70;;;20.30;93.30;;;;;;6245069;22;20007;-73
2022/04/12 10:47:34;;;;;;;7.33;4.07;;;20.50;93.00;;;;;;6240911;22;20109;-74
2022/04/12 10:50:03;;;;;;;6.43;3.63;;;20.80;93.30;;;;;;6243337;23;20007;-75
2022/04/12 10:52:48;;;;;;;7.63;3.90;;;20.70;93.40;;;;;;6244893;22;20008;-74
2022/04/12 10:55:23;;;;;;;7.68;4.07;;;20.90;92.20;;;;;;6244937;22;20007;-74
2022/04/12 10:57:50;;;;;;;7.40;3.35;;;20.80;93.70;;;;;;6244346;22;20043;-72
2022/04/12 11:00:16;;;;;;;6.85;3.47;;;20.70;93.50;;;;;;6244792;22;20020;-73
2022/04/12 11:02:52;;;;;;;7.45;3.35;;;20.60;92.60;;;;;;6244655;22;20038;-73
2022/04/12 11:05:36;;;;;;;11.65;3.63;;;20.70;93.00;;;;;;6245069;22;20051;-73
2022/04/12 11:08:13;;;;;;;5.28;3.17;;;20.70;92.80;;;;;;6242900;23;20008;-73
2022/04/12 11:10:40;;;;;;;10.20;3.38;;;20.70;92.30;;;;;;6242520;23;20046;-73
2022/04/12 11:13:09;;;;;;;6.22;3.28;;;20.80;93.40;;;;;;6244323;22;19997;-73
2022/04/12 11:15:37;;;;;;;7.15;3.70;;;20.70;92.90;;;;;;6244553;22;20424;-73
2022/04/12 11:18:16;;;;;;;7.90;3.90;;;20.90;93.10;;;;;;6244108;22;20075;-74
2022/04/12 11:20:48;;;;;;;9.82;3.42;;;20.90;92.70;;;;;;6245794;23;20038;-73
2022/04/12 11:23:14;;;;;;;7.60;4.22;;;20.80;92.90;;;;;;6244734;22;20044;-72
2022/04/12 11:25:47;;;;;;;7.00;3.45;;;21.00;93.60;;;;;;6243742;22;20055;-73
2022/04/12 11:28:15;;;;;;;5.18;4.13;;;21.30;93.70;;;;;;6243504;22;20004;-73
2022/04/12 11:30:41;;;;;;;9.85;3.67;;;21.30;92.70;;;;;;6243729;23;20352;-73
2022/04/12 11:33:08;;;;;;;9.23;3.67;;;21.30;92.10;;;;;;6244832;22;19996;-73
2022/04/12 11:35:35;;;;;;;9.40;3.75;;;21.30;92.60;;;;;;6244909;22;20362;-73
2022/04/12 11:38:04;;;;;;;8.48;3.60;;;21.30;92.50;;;;;;6244024;22;20523;-74
2022/04/12 11:40:30;;;;;;;7.68;3.10;;;21.40;91.60;;;;;;6244627;22;20000;-73
2022/04/12 11:42:56;;;;;;;6.53;3.65;;;21.40;92.20;;;;;;6243638;22;20004;-73
2022/04/12 11:45:31;;;;;;;4.70;2.97;;;21.50;91.80;;;;;;6241273;23;20127;-73
2022/04/12 11:48:00;;;;;;;6.70;3.20;;;21.60;92.00;;;;;;6242305;22;20004;-73
2022/04/12 11:50:25;;;;;;;5.70;2.75;;;21.80;92.40;;;;;;6247245;23;20011;-72
2022/04/12 11:52:51;;;;;;;5.45;2.08;;;21.90;91.10;;;;;;6246501;23;20012;-73
2022/04/12 11:55:17;;;;;;;3.95;1.83;;;22.00;91.70;;;;;;6245330;23;20003;-73
2022/04/12 11:57:43;;;;;;;8.90;1.88;;;22.10;90.90;;;;;;6246670;23;20011;-72
2022/04/12 12:00:09;;;;;;;2.70;1.73;;;22.20;90.90;;;;;;6246647;22;20028;-73
2022/04/12 12:02:38;;;;;;;5.75;1.85;;;22.10;86.60;;;;;;6246881;22;20011;-72
2022/04/12 12:05:09;;;;;;;3.30;1.50;;;22.00;85.10;;;;;;6246206;22;20303;-73
2022/04/12 12:07:36;;;;;;;2.63;1.40;;;22.00;86.90;;;;;;6245803;22;20008;-72
2022/04/12 12:10:05;;;;;;;4.20;1.77;;;22.20;89.00;;;;;;6247009;22;20443;-73
2022/04/12 12:12:41;;;;;;;3.17;1.52;;;22.20;86.50;;;;;;6243803;22;20075;-75
2022/04/12 12:15:24;;;;;;;2.75;1.58;;;22.10;87.60;;;;;;6244749;22;20425;-76
2022/04/12 12:17:52;;;;;;;8.25;1.65;;;22.20;84.50;;;;;;6247021;22;20046;-75
2022/04/12 12:20:20;;;;;;;5.03;1.42;;;22.40;85.00;;;;;;6271151;22;20000;-76
2022/04/12 12:22:49;;;;;;;4.80;1.50;;;22.30;84.60;;;;;;6246727;22;20004;-74
2022/04/12 12:25:22;;;;;;;3.63;1.73;;;22.50;88.30;;;;;;6246689;22;20448;-74
2022/04/12 12:27:53;;;;;;;2.92;1.50;;;22.60;87.60;;;;;;6246667;22;20012;-75
2022/04/12 12:30:22;;;;;;;2.88;1.52;;;22.60;83.80;;;;;;6246871;22;20054;-73
2022/04/12 12:32:51;;;;;;;4.35;1.27;;;22.60;89.40;;;;;;6246634;22;20006;-74
2022/04/12 12:35:17;;;;;;;3.80;1.67;;;22.70;83.10;;;;;;6243615;22;20004;-74
2022/04/12 12:37:45;;;;;;;4.78;1.52;;;22.80;83.40;;;;;;6246112;22;20317;-74
2022/04/12 12:40:26;;;;;;;5.10;1.70;;;22.80;83.80;;;;;;6246182;22;20000;-73
2022/04/12 12:42:53;;;;;;;4.22;1.75;;;22.70;82.90;;;;;;6244850;23;20372;-75
2022/04/12 12:45:24;;;;;;;7.45;1.75;;;22.90;84.70;;;;;;6245702;22;20322;-74
2022/04/12 12:47:55;;;;;;;7.95;1.88;;;22.60;81.50;;;;;;6245337;22;20004;-74